This is the latest recevied weather packets stored in our database for station/object SP8PUB-10. If no packets are shown the sender has not sent any weather packets the latest 10 day(s).
| Time | Temp. | Humidity | Pressure | Rain* | Wind** | Luminosity | Snow |
|---|---|---|---|---|---|---|---|
| 1777641620 | 17.78° C | 47% | 1025.2 hPa | - | - | - | - |
| 1777638920 | 18.33° C | 46% | 1025.7 hPa | - | - | - | - |
| 1777638020 | 18.33° C | 46% | 1025.5 hPa | - | - | - | - |
| 1777637120 | 17.78° C | 46% | 1025.8 hPa | - | - | - | - |
| 1777636220 | 17.78° C | 46% | 1025.8 hPa | - | - | - | - |
| 1777635320 | 17.78° C | 45% | 1026.1 hPa | - | - | - | - |
| 1777634419 | 18.33° C | 46% | 1026 hPa | - | - | - | - |
| 1777633519 | 17.78° C | 47% | 1026.1 hPa | - | - | - | - |
| 1777632619 | 18.33° C | 46% | 1026.2 hPa | - | - | - | - |
| 1777631719 | 18.33° C | 47% | 1026.3 hPa | - | - | - | - |
| 1777629924 | 17.78° C | 46% | 1026.5 hPa | - | - | - | - |
| 1777629023 | 17.78° C | 46% | 1026.7 hPa | - | - | - | - |
| 1777628123 | 17.22° C | 46% | 1026.8 hPa | - | - | - | - |
| 1777627223 | 17.78° C | 45% | 1027 hPa | - | - | - | - |
| 1777626323 | 18.33° C | 45% | 1027 hPa | - | - | - | - |
| 1777625423 | 18.33° C | 43% | 1027.3 hPa | - | - | - | - |
| 1777624523 | 18.89° C | 42% | 1027.3 hPa | - | - | - | - |
| 1777623623 | 17.22° C | 43% | 1026.8 hPa | - | - | - | - |
| 1777622723 | 15.56° C | 47% | 1027.4 hPa | - | - | - | - |
| 1777621823 | 15° C | 46% | 1027.6 hPa | - | - | - | - |
| 1777620922 | 15° C | 47% | 1027.6 hPa | - | - | - | - |
| 1777620022 | 14.44° C | 47% | 1027.4 hPa | - | - | - | - |
| 1777619122 | 13.33° C | 49% | 1027.6 hPa | - | - | - | - |
| 1777618222 | 12.22° C | 50% | 1027.6 hPa | - | - | - | - |
| 1777617322 | 10.56° C | 53% | 1027.6 hPa | - | - | - | - |
* Rain since midnight (hover to see other rain measurements)
** Current wind speed in m/s (hover to see current wind gust speed)